createdAt,value
2023-01-13T00:00:16.110Z,99977.53
2023-01-13T00:02:42.765Z,99982.38
2023-01-13T00:05:10.310Z,99983.34
2023-01-13T00:07:38.390Z,99986.03
2023-01-13T00:10:05.138Z,99993.56
2023-01-13T00:12:31.687Z,99999.09
2023-01-13T00:14:58.199Z,99995.53
2023-01-13T00:17:24.732Z,99993.00
2023-01-13T00:19:51.661Z,100008.41
2023-01-13T00:22:18.218Z,99995.34
2023-01-13T00:24:44.750Z,99995.97
2023-01-13T00:27:11.278Z,99987.78
2023-01-13T00:29:37.814Z,99989.06
2023-01-13T00:32:04.406Z,99994.81
2023-01-13T00:34:31.526Z,99977.31
2023-01-13T00:36:58.182Z,99980.09
2023-01-13T00:39:24.726Z,99977.91
2023-01-13T00:42:09.725Z,99984.16
2023-01-13T00:44:36.378Z,99975.50
2023-01-13T00:47:02.872Z,99970.84
2023-01-13T00:49:29.392Z,99976.25
2023-01-13T00:51:55.882Z,99967.88
2023-01-13T00:54:22.381Z,99968.41
2023-01-13T00:56:48.881Z,99965.13
2023-01-13T00:59:15.428Z,99983.47
2023-01-13T01:01:42.168Z,99978.13
2023-01-13T01:04:08.891Z,99990.13
2023-01-13T01:06:35.478Z,99983.94
2023-01-13T01:09:02.022Z,99975.84
2023-01-13T01:11:29.408Z,99975.22
2023-01-13T01:13:56.753Z,99989.59
2023-01-13T01:16:24.214Z,99991.94
2023-01-13T01:18:51.351Z,99979.53
2023-01-13T01:21:18.247Z,99981.84
2023-01-13T01:23:44.764Z,99979.81
2023-01-13T01:26:15.543Z,99976.00
2023-01-13T01:28:42.102Z,99979.56
2023-01-13T01:31:09.382Z,99981.56
2023-01-13T01:33:35.928Z,99968.59
2023-01-13T01:36:02.679Z,99973.81
2023-01-13T01:38:29.296Z,99970.03
2023-01-13T01:40:56.005Z,99979.72
2023-01-13T01:43:41.397Z,99968.47
2023-01-13T01:46:07.923Z,99966.16
2023-01-13T01:48:38.653Z,99969.25
2023-01-13T01:51:05.423Z,99959.81
2023-01-13T01:53:32.003Z,99960.88
2023-01-13T01:55:58.621Z,99957.09
2023-01-13T01:58:27.628Z,99957.09
2023-01-13T02:00:54.277Z,99957.03
2023-01-13T02:03:20.896Z,99959.38
2023-01-13T02:05:47.416Z,99963.94
2023-01-13T02:08:13.987Z,99960.66
2023-01-13T02:10:40.812Z,99956.69
2023-01-13T02:13:08.772Z,99954.81
2023-01-13T02:15:40.898Z,99959.88
2023-01-13T02:18:11.741Z,99949.41
2023-01-13T02:20:57.376Z,99951.69
2023-01-13T02:23:57.828Z,99938.75
2023-01-13T02:26:30.132Z,99941.03
2023-01-13T02:29:20.164Z,99951.69
2023-01-13T02:31:46.815Z,99941.13
2023-01-13T02:34:32.210Z,99935.31
2023-01-13T02:37:00.136Z,99934.03
2023-01-13T02:39:27.635Z,99930.66
2023-01-13T02:42:14.071Z,99935.09
2023-01-13T02:44:48.277Z,99930.81
2023-01-13T02:47:20.074Z,99935.56
2023-01-13T02:49:51.097Z,99935.09
2023-01-13T02:52:19.770Z,99928.66
2023-01-13T02:54:47.897Z,99935.72
2023-01-13T02:57:14.406Z,99924.75
2023-01-13T02:59:40.871Z,99944.59
2023-01-13T03:02:07.469Z,99924.19
2023-01-13T03:04:47.826Z,99922.41
2023-01-13T03:07:23.813Z,99931.16
2023-01-13T03:09:53.378Z,99935.56
2023-01-13T03:12:38.127Z,99934.84
2023-01-13T03:15:08.100Z,99912.66
2023-01-13T03:17:41.986Z,99911.41
2023-01-13T03:20:11.033Z,99909.78
2023-01-13T03:22:45.271Z,99904.78
2023-01-13T03:25:12.319Z,99917.84
2023-01-13T03:27:41.795Z,99904.06
2023-01-13T03:30:09.532Z,99914.16
2023-01-13T03:32:36.926Z,99913.78
2023-01-13T03:35:12.032Z,99914.47
2023-01-13T03:37:39.621Z,99913.75
2023-01-13T03:40:07.911Z,99918.38
2023-01-13T03:42:34.588Z,99915.09
2023-01-13T03:45:03.723Z,99913.19
2023-01-13T03:47:38.546Z,99920.50
2023-01-13T03:50:17.493Z,99921.28
2023-01-13T03:52:44.942Z,99921.00
2023-01-13T03:55:12.408Z,99919.41
2023-01-13T03:57:40.309Z,99917.59
2023-01-13T04:00:07.494Z,99913.03
2023-01-13T04:02:51.817Z,99899.63
2023-01-13T04:05:18.401Z,99911.69
2023-01-13T04:07:49.860Z,99911.31
2023-01-13T04:10:18.160Z,99902.22
2023-01-13T04:13:00.923Z,99896.13
2023-01-13T04:15:31.595Z,99904.34
2023-01-13T04:18:14.839Z,99908.69
2023-01-13T04:20:41.561Z,99905.63
2023-01-13T04:23:08.190Z,99908.69
2023-01-13T04:25:34.698Z,99901.25
2023-01-13T04:28:01.135Z,99910.84
2023-01-13T04:30:27.530Z,99913.94
2023-01-13T04:32:54.028Z,99922.56
2023-01-13T04:35:20.465Z,99929.53
2023-01-13T04:37:46.870Z,99929.53
2023-01-13T04:40:13.412Z,99918.22
2023-01-13T04:42:39.944Z,99919.50
2023-01-13T04:45:06.599Z,99918.72
2023-01-13T04:47:33.008Z,99926.41
2023-01-13T04:49:59.420Z,99923.72
2023-01-13T04:52:25.915Z,99923.78
2023-01-13T04:54:52.331Z,99928.53
2023-01-13T04:57:18.795Z,99919.94
2023-01-13T04:59:45.253Z,99929.81
2023-01-13T05:02:15.108Z,99934.06
2023-01-13T05:04:41.638Z,99926.88
2023-01-13T05:07:08.215Z,99931.44
2023-01-13T05:09:34.657Z,99940.31
2023-01-13T05:12:19.934Z,99933.50
2023-01-13T05:15:05.358Z,99943.50
2023-01-13T05:17:31.918Z,99938.47
2023-01-13T05:19:58.369Z,99938.75
2023-01-13T05:22:43.543Z,99941.53
2023-01-13T05:25:22.526Z,99936.47
2023-01-13T05:27:49.251Z,99935.84
2023-01-13T05:30:15.894Z,99932.34
2023-01-13T05:32:42.422Z,99944.72
2023-01-13T05:35:09.050Z,99940.72
2023-01-13T05:37:35.922Z,99943.25
2023-01-13T05:40:21.649Z,99948.66
2023-01-13T05:43:06.788Z,99948.13
2023-01-13T05:45:33.311Z,99946.72
2023-01-13T05:47:59.788Z,99943.22
2023-01-13T05:50:26.247Z,99941.47
2023-01-13T05:52:52.717Z,99951.25
2023-01-13T05:55:19.261Z,99947.91
2023-01-13T05:57:45.715Z,99954.16
2023-01-13T06:00:12.335Z,99953.38
2023-01-13T06:02:38.818Z,99943.72
2023-01-13T06:05:05.232Z,99963.31
2023-01-13T06:07:31.681Z,99954.06
2023-01-13T06:09:58.147Z,99942.97
2023-01-13T06:12:24.590Z,99947.31
2023-01-13T06:14:51.158Z,99951.66
2023-01-13T06:17:17.660Z,99960.16
2023-01-13T06:19:44.066Z,99960.84
2023-01-13T06:22:22.993Z,99970.16
2023-01-13T06:24:49.629Z,99966.84
2023-01-13T06:27:16.090Z,99969.53
2023-01-13T06:29:42.497Z,99965.72
2023-01-13T06:32:11.613Z,99973.09
2023-01-13T06:34:38.030Z,99968.13
2023-01-13T06:37:04.417Z,99969.97
2023-01-13T06:39:31.199Z,99972.63
2023-01-13T06:42:33.138Z,99957.16
2023-01-13T06:44:59.580Z,99940.53
2023-01-13T06:47:26.163Z,99915.38
2023-01-13T06:49:53.321Z,99938.72
2023-01-13T06:52:19.861Z,99958.78
2023-01-13T06:54:46.238Z,99963.84
2023-01-13T06:57:12.652Z,99966.03
2023-01-13T06:59:39.235Z,99957.69
2023-01-13T07:02:05.768Z,99961.00
2023-01-13T07:04:32.169Z,99949.88
2023-01-13T07:06:58.664Z,99961.94
2023-01-13T07:09:25.129Z,99956.94
2023-01-13T07:14:35.333Z,99963.03
2023-01-13T07:17:01.866Z,99943.22
2023-01-13T07:19:28.419Z,99917.59
2023-01-13T07:21:54.963Z,99931.75
2023-01-13T07:24:22.465Z,99955.06
2023-01-13T07:26:50.833Z,99958.91
2023-01-13T07:29:17.345Z,99931.75
2023-01-13T07:31:44.058Z,99928.34
2023-01-13T07:34:10.600Z,99961.97
2023-01-13T07:36:37.191Z,99963.16
2023-01-13T07:39:03.836Z,99946.59
2023-01-13T07:41:49.067Z,99965.16
2023-01-13T07:44:15.592Z,99974.41
2023-01-13T07:46:42.136Z,99970.16
2023-01-13T07:49:09.097Z,99976.38
2023-01-13T07:51:37.440Z,99982.41
2023-01-13T07:54:04.087Z,99969.72
2023-01-13T07:56:30.619Z,99971.72
2023-01-13T07:58:59.362Z,99972.47
2023-01-13T08:01:27.844Z,99976.75
2023-01-13T08:03:56.225Z,100004.13
2023-01-13T08:06:22.802Z,99998.66
2023-01-13T08:08:49.335Z,100004.13
2023-01-13T08:11:15.953Z,100002.56
2023-01-13T08:13:42.593Z,100002.56
2023-01-13T08:16:12.269Z,100015.22
2023-01-13T08:18:39.037Z,100020.75
2023-01-13T08:21:11.540Z,100025.31
2023-01-13T08:23:38.577Z,100027.88
2023-01-13T08:26:07.561Z,100029.19
2023-01-13T08:28:34.177Z,100020.44
2023-01-13T08:31:05.185Z,100010.13
2023-01-13T08:33:31.795Z,100015.09
2023-01-13T08:35:58.609Z,100020.72
2023-01-13T08:38:25.357Z,100010.06
2023-01-13T08:40:51.993Z,100027.88
2023-01-13T08:43:18.547Z,99995.34
2023-01-13T08:45:45.170Z,100006.22
2023-01-13T08:48:11.801Z,100029.44
2023-01-13T08:50:38.443Z,100040.69
2023-01-13T08:53:04.990Z,100055.41
2023-01-13T08:55:31.555Z,100047.94
2023-01-13T08:58:14.217Z,100043.06
2023-01-13T09:00:42.184Z,100049.50
2023-01-13T09:03:08.739Z,100017.16
2023-01-13T09:05:35.773Z,100013.16
2023-01-13T09:08:02.339Z,99958.72
2023-01-13T09:10:28.930Z,99880.44
2023-01-13T09:13:13.865Z,99927.63
2023-01-13T09:15:45.434Z,99992.88
2023-01-13T09:18:12.876Z,100016.38
2023-01-13T09:20:39.907Z,100025.47
2023-01-13T09:23:10.061Z,100035.63
2023-01-13T09:25:37.335Z,100032.59
2023-01-13T09:28:05.097Z,100031.09
2023-01-13T09:30:31.943Z,100026.47
2023-01-13T09:33:17.441Z,100022.31
2023-01-13T09:35:44.449Z,100025.44
2023-01-13T09:38:11.028Z,100004.91
2023-01-13T09:40:38.636Z,100001.34
2023-01-13T09:43:37.092Z,99994.78
2023-01-13T09:46:31.465Z,99996.25
2023-01-13T09:48:58.399Z,100024.44
2023-01-13T09:51:32.279Z,100027.44
2023-01-13T09:54:07.221Z,100027.06
2023-01-13T09:56:33.769Z,100041.06
2023-01-13T09:59:00.300Z,100034.94
2023-01-13T10:01:30.297Z,100035.59
2023-01-13T10:03:57.945Z,100035.53
2023-01-13T10:06:35.092Z,100041.94
2023-01-13T10:09:01.853Z,100055.25
2023-01-13T10:11:55.669Z,100046.53
2023-01-13T10:14:36.055Z,100046.16
2023-01-13T10:17:15.536Z,100048.53
2023-01-13T10:19:50.829Z,100039.22
2023-01-13T10:22:35.109Z,100046.06
2023-01-13T10:25:20.361Z,100050.63
2023-01-13T10:27:53.235Z,100044.38
2023-01-13T10:30:31.167Z,100041.25
2023-01-13T10:33:25.785Z,100040.81
2023-01-13T10:35:55.979Z,100051.22
2023-01-13T10:38:32.852Z,100047.16
2023-01-13T10:41:02.346Z,100042.41
2023-01-13T10:43:29.998Z,100040.06
2023-01-13T10:46:02.429Z,100029.88
2023-01-13T10:48:58.334Z,100043.25
2023-01-13T10:51:32.765Z,100030.19
2023-01-13T10:54:02.818Z,100029.94
2023-01-13T10:56:32.673Z,100035.28
2023-01-13T10:59:22.293Z,100032.75
2023-01-13T11:02:02.413Z,100023.06
2023-01-13T11:04:42.607Z,100041.41
2023-01-13T11:07:21.398Z,100047.25
2023-01-13T11:09:48.127Z,100035.50
2023-01-13T11:12:33.097Z,100037.38
2023-01-13T11:15:02.496Z,100037.94
2023-01-13T11:17:42.814Z,100030.91
2023-01-13T11:20:14.775Z,100038.22
2023-01-13T11:22:46.333Z,100043.13
2023-01-13T11:25:22.425Z,100032.59
2023-01-13T11:27:57.643Z,100042.88
2023-01-13T11:30:44.004Z,100044.44
2023-01-13T11:33:10.523Z,100056.13
2023-01-13T11:35:47.617Z,100040.63
2023-01-13T11:38:28.620Z,100035.38
2023-01-13T11:40:58.821Z,100038.53
2023-01-13T11:43:51.659Z,100041.31
2023-01-13T11:46:18.907Z,100047.97
2023-01-13T11:48:45.509Z,100035.25
2023-01-13T11:51:15.169Z,100049.94
2023-01-13T11:54:12.073Z,100039.44
2023-01-13T11:57:06.521Z,100025.28
2023-01-13T11:59:50.382Z,100040.88
2023-01-13T12:02:24.733Z,100040.16
2023-01-13T12:05:06.808Z,100051.09
2023-01-13T12:07:56.003Z,100031.72
2023-01-13T12:10:31.329Z,100034.50
2023-01-13T12:13:15.346Z,100038.16
2023-01-13T12:15:47.457Z,100043.59
2023-01-13T12:18:16.931Z,100038.97
2023-01-13T12:21:03.881Z,100031.72
2023-01-13T12:23:34.549Z,100055.31
2023-01-13T12:26:21.342Z,100037.13
2023-01-13T12:28:58.309Z,100036.53
2023-01-13T12:31:25.260Z,100053.47
2023-01-13T12:33:55.570Z,100043.06
2023-01-13T12:36:27.788Z,100039.38
2023-01-13T12:38:59.475Z,100051.44
2023-01-13T12:42:16.986Z,100045.75
2023-01-13T12:45:08.304Z,100046.16
2023-01-13T12:47:44.426Z,100065.53
2023-01-13T12:50:40.737Z,100050.56
2023-01-13T12:53:30.662Z,100062.22
2023-01-13T12:56:20.820Z,100057.34
2023-01-13T12:58:47.382Z,100071.53
2023-01-13T13:01:15.388Z,100058.31
2023-01-13T13:03:42.072Z,100071.19
2023-01-13T13:06:23.165Z,100057.19
2023-01-13T13:09:03.242Z,100076.56
2023-01-13T13:12:03.590Z,100091.09
2023-01-13T13:14:38.983Z,100069.97
2023-01-13T13:17:27.973Z,100066.25
2023-01-13T13:19:56.003Z,100077.06
2023-01-13T13:22:38.663Z,100076.78
2023-01-13T13:25:05.074Z,100090.78
2023-01-13T13:27:31.526Z,100080.59
2023-01-13T13:30:17.501Z,100089.03
2023-01-13T13:32:55.935Z,100086.03
2023-01-13T13:35:32.181Z,100080.03
2023-01-13T13:38:43.635Z,100075.81
2023-01-13T13:41:41.883Z,100086.31
2023-01-13T13:44:38.572Z,100087.56
2023-01-13T13:47:06.501Z,100083.91
2023-01-13T13:49:49.064Z,100078.94
2023-01-13T13:52:21.433Z,100087.56
2023-01-13T13:54:51.946Z,100086.25
2023-01-13T13:57:40.016Z,100086.97
2023-01-13T14:00:15.926Z,100096.66
2023-01-13T14:02:49.616Z,100089.50
2023-01-13T14:05:34.093Z,100093.69
2023-01-13T14:08:18.710Z,100097.72
2023-01-13T14:10:46.324Z,100102.63
2023-01-13T14:13:27.045Z,100103.75
2023-01-13T14:16:06.732Z,100110.59
2023-01-13T14:18:48.167Z,100103.56
2023-01-13T14:21:19.418Z,100102.59
2023-01-13T14:23:57.034Z,100107.88
2023-01-13T14:26:31.096Z,100110.72
2023-01-13T14:28:58.760Z,100116.25
2023-01-13T14:31:25.611Z,100106.50
2023-01-13T14:33:54.284Z,100113.97
2023-01-13T14:36:33.129Z,100110.91
2023-01-13T14:39:05.707Z,100111.31
2023-01-13T14:41:35.029Z,100115.88
2023-01-13T14:44:09.855Z,100107.25
2023-01-13T14:46:38.514Z,100122.16
2023-01-13T14:49:05.322Z,100117.78
2023-01-13T14:51:32.025Z,100106.19
2023-01-13T14:53:59.265Z,100109.16
2023-01-13T14:56:53.729Z,100102.25
2023-01-13T14:59:57.304Z,100108.31
2023-01-13T15:02:37.183Z,100123.03
2023-01-13T15:05:19.032Z,100123.69
2023-01-13T15:07:52.978Z,100118.34
2023-01-13T15:10:21.424Z,100119.41
2023-01-13T15:12:51.690Z,100120.50
2023-01-13T15:15:33.055Z,100122.56
2023-01-13T15:18:01.827Z,100122.28
2023-01-13T15:20:28.974Z,100116.63
2023-01-13T15:22:57.965Z,100115.41
2023-01-13T15:25:24.589Z,100130.88
2023-01-13T15:27:52.587Z,100129.31
2023-01-13T15:30:20.679Z,100144.06
2023-01-13T15:32:47.705Z,100143.72
2023-01-13T15:35:16.166Z,100143.94
2023-01-13T15:37:43.952Z,100150.19
2023-01-13T15:40:23.756Z,100152.84
2023-01-13T15:43:09.386Z,100153.53
2023-01-13T15:45:55.471Z,100149.34
2023-01-13T15:48:23.445Z,100149.75
2023-01-13T15:50:50.261Z,100154.22
2023-01-13T15:53:17.060Z,100149.59
2023-01-13T15:55:45.687Z,100157.22
2023-01-13T15:58:12.921Z,100143.53
2023-01-13T16:00:40.108Z,100148.59
2023-01-13T16:03:06.859Z,100149.94
2023-01-13T16:05:33.425Z,100165.81
2023-01-13T16:08:00.023Z,100154.13
2023-01-13T16:10:27.987Z,100159.34
2023-01-13T16:12:57.398Z,100159.28
2023-01-13T16:15:25.887Z,100170.44
2023-01-13T16:17:57.103Z,100163.13
2023-01-13T16:20:23.712Z,100171.22
2023-01-13T16:22:50.568Z,100172.63
2023-01-13T16:25:25.026Z,100166.34
2023-01-13T16:27:52.720Z,100182.47
2023-01-13T16:30:28.422Z,100175.69
2023-01-13T16:32:55.250Z,100181.41
2023-01-13T16:35:22.470Z,100176.41
2023-01-13T16:37:49.332Z,100182.56
2023-01-13T16:40:34.051Z,100189.03
2023-01-13T16:43:03.201Z,100190.41
2023-01-13T16:45:33.577Z,100210.28
2023-01-13T16:48:00.337Z,100194.16
2023-01-13T16:50:45.151Z,100198.34
2023-01-13T16:53:11.985Z,100203.13
2023-01-13T16:55:40.060Z,100205.84
2023-01-13T16:58:07.292Z,100212.38
2023-01-13T17:00:34.121Z,100215.88
2023-01-13T17:03:02.949Z,100225.47
2023-01-13T17:05:29.615Z,100226.47
2023-01-13T17:07:57.359Z,100238.59
2023-01-13T17:10:25.094Z,100233.56
2023-01-13T17:12:51.775Z,100244.28
2023-01-13T17:15:19.593Z,100240.63
2023-01-13T17:17:52.072Z,100234.94
2023-01-13T17:20:19.204Z,100252.97
2023-01-13T17:22:49.754Z,100244.06
2023-01-13T17:25:21.592Z,100241.72
2023-01-13T17:27:48.216Z,100245.72
2023-01-13T17:30:15.159Z,100245.00
2023-01-13T17:32:41.760Z,100257.41
2023-01-13T17:35:08.921Z,100253.38
2023-01-13T17:37:35.673Z,100252.34
2023-01-13T17:40:02.271Z,100261.03
2023-01-13T17:42:29.651Z,100255.19
2023-01-13T17:44:56.400Z,100263.63
2023-01-13T17:47:23.119Z,100265.09
2023-01-13T17:49:49.681Z,100285.31
2023-01-13T17:52:16.306Z,100277.03
2023-01-13T17:54:43.830Z,100269.09
2023-01-13T17:57:10.741Z,100277.84
2023-01-13T17:59:37.305Z,100278.00
2023-01-13T18:02:04.891Z,100275.31
2023-01-13T18:04:31.701Z,100272.56
2023-01-13T18:06:58.385Z,100280.66
2023-01-13T18:09:25.956Z,100286.94
2023-01-13T18:11:52.525Z,100295.03
2023-01-13T18:14:22.373Z,100295.72
2023-01-13T18:16:49.032Z,100287.50
2023-01-13T18:19:34.194Z,100305.81
2023-01-13T18:22:19.513Z,100299.06
2023-01-13T18:25:04.703Z,100305.34
2023-01-13T18:27:33.477Z,100312.84
2023-01-13T18:30:01.102Z,100299.34
2023-01-13T18:32:32.871Z,100303.47
2023-01-13T18:35:06.489Z,100303.38
2023-01-13T18:37:35.980Z,100303.56
2023-01-13T18:40:03.493Z,100307.38
2023-01-13T18:42:48.871Z,100308.28
2023-01-13T18:45:15.465Z,100308.88
2023-01-13T18:47:42.362Z,100308.16
2023-01-13T18:50:09.871Z,100315.25
2023-01-13T18:52:36.626Z,100323.44
2023-01-13T18:55:03.706Z,100319.94
2023-01-13T18:57:30.311Z,100323.25
2023-01-13T18:59:57.650Z,100317.59
2023-01-13T19:02:26.372Z,100322.63
2023-01-13T19:04:53.853Z,100332.56
2023-01-13T19:07:26.787Z,100329.63
2023-01-13T19:09:55.545Z,100340.75
2023-01-13T19:12:26.455Z,100354.34
2023-01-13T19:14:59.257Z,100360.78
2023-01-13T19:17:36.265Z,100353.13
2023-01-13T19:20:05.072Z,100351.34
2023-01-13T19:22:33.678Z,100357.88
2023-01-13T19:25:01.568Z,100375.06
2023-01-13T19:27:29.203Z,100362.16
2023-01-13T19:30:02.361Z,100364.41
2023-01-13T19:32:35.506Z,100366.44
2023-01-13T19:35:02.107Z,100368.06
2023-01-13T19:37:30.433Z,100359.72
2023-01-13T19:39:58.624Z,100372.53
2023-01-13T19:42:43.964Z,100374.09
2023-01-13T19:45:27.346Z,100377.03
2023-01-13T19:47:55.348Z,100387.47
2023-01-13T19:50:21.907Z,100384.69
2023-01-13T19:52:49.432Z,100389.06
2023-01-13T19:55:16.498Z,100396.81
2023-01-13T19:57:43.471Z,100395.63
2023-01-13T20:00:11.264Z,100403.34
2023-01-13T20:02:47.586Z,100418.75
2023-01-13T20:05:18.124Z,100399.56
2023-01-13T20:07:44.817Z,100416.91
2023-01-13T20:10:13.175Z,100414.84
2023-01-13T20:12:39.902Z,100420.72
2023-01-13T20:15:07.057Z,100424.88
2023-01-13T20:17:33.642Z,100430.28
2023-01-13T20:20:00.358Z,100427.69
2023-01-13T20:22:26.921Z,100424.09
2023-01-13T20:24:55.270Z,100442.44
2023-01-13T20:27:23.736Z,100440.28
2023-01-13T20:29:50.628Z,100440.19
2023-01-13T20:32:17.169Z,100444.22
2023-01-13T20:34:43.820Z,100440.94
2023-01-13T20:37:10.439Z,100457.13
2023-01-13T20:39:36.996Z,100454.81
2023-01-13T20:42:22.659Z,100451.53
2023-01-13T20:44:49.642Z,100459.97
2023-01-13T20:47:16.160Z,100450.75
2023-01-13T20:49:42.700Z,100454.69
2023-01-13T20:52:09.709Z,100443.00
2023-01-13T20:54:37.099Z,100448.63
2023-01-13T20:57:05.075Z,100450.75
2023-01-13T20:59:31.755Z,100450.19
2023-01-13T21:01:58.391Z,100455.25
2023-01-13T21:04:25.078Z,100454.91
2023-01-13T21:06:52.260Z,100460.09
2023-01-13T21:09:18.875Z,100488.31
2023-01-13T21:12:04.065Z,100466.63
2023-01-13T21:14:49.227Z,100482.25
2023-01-13T21:17:34.331Z,100475.03
2023-01-13T21:20:02.298Z,100474.06
2023-01-13T21:22:30.250Z,100487.28
2023-01-13T21:24:58.476Z,100490.91
2023-01-13T21:27:25.824Z,100495.38
2023-01-13T21:29:52.419Z,100486.75
2023-01-13T21:32:19.074Z,100491.13
2023-01-13T21:34:46.429Z,100495.06
2023-01-13T21:37:14.788Z,100490.56
2023-01-13T21:39:42.507Z,100494.94
2023-01-13T21:42:34.651Z,100499.00
2023-01-13T21:45:20.490Z,100499.22
2023-01-13T21:47:49.656Z,100502.34
2023-01-13T21:50:22.533Z,100506.44
2023-01-13T21:52:50.285Z,100507.09
2023-01-13T21:55:17.176Z,100501.81
2023-01-13T21:57:47.815Z,100508.53
2023-01-13T22:00:15.782Z,100516.31
2023-01-13T22:02:42.948Z,100519.34
2023-01-13T22:05:11.304Z,100510.00
2023-01-13T22:07:38.939Z,100516.97
2023-01-13T22:10:08.135Z,100520.78
2023-01-13T22:12:34.680Z,100520.47
2023-01-13T22:15:01.855Z,100523.25
2023-01-13T22:17:28.694Z,100515.41
2023-01-13T22:19:57.343Z,100517.44
2023-01-13T22:22:25.096Z,100527.31
2023-01-13T22:24:53.107Z,100533.03
2023-01-13T22:27:21.966Z,100534.16
2023-01-13T22:29:49.565Z,100524.94
2023-01-13T22:32:16.723Z,100534.81
2023-01-13T22:34:43.605Z,100537.19
2023-01-13T22:37:10.254Z,100538.09
2023-01-13T22:39:36.861Z,100541.91
2023-01-13T22:42:04.095Z,100538.09
2023-01-13T22:44:30.745Z,100545.28
2023-01-13T22:46:57.283Z,100554.22
2023-01-13T22:49:23.838Z,100549.47
2023-01-13T22:51:50.404Z,100550.06
2023-01-13T22:54:18.233Z,100550.06
2023-01-13T22:56:44.871Z,100563.09
2023-01-13T22:59:13.208Z,100573.75
2023-01-13T23:01:40.287Z,100577.56
2023-01-13T23:04:07.140Z,100580.47
2023-01-13T23:06:35.323Z,100577.91
2023-01-13T23:09:01.894Z,100579.94
2023-01-13T23:11:29.461Z,100581.38
2023-01-13T23:14:07.031Z,100593.50
2023-01-13T23:16:36.808Z,100581.28
2023-01-13T23:19:04.657Z,100584.28
2023-01-13T23:21:33.325Z,100582.03
2023-01-13T23:24:00.328Z,100581.00
2023-01-13T23:26:27.628Z,100590.75
2023-01-13T23:28:58.869Z,100579.59
2023-01-13T23:31:25.815Z,100581.28
2023-01-13T23:33:52.477Z,100580.91
2023-01-13T23:36:21.326Z,100587.34
2023-01-13T23:38:48.180Z,100591.63
2023-01-13T23:41:16.711Z,100602.28
2023-01-13T23:43:43.350Z,100599.81
2023-01-13T23:46:12.447Z,100600.34
2023-01-13T23:48:39.138Z,100611.94
2023-01-13T23:51:08.678Z,100602.06
2023-01-13T23:53:39.952Z,100609.03
2023-01-13T23:56:10.507Z,100605.53
2023-01-13T23:58:37.055Z,100598.25
